Time;durP1;ratioP1;P1;durP2;ratioP2;P2;SDS_P1;SDS_P2;PMS_P1;PMS_P2;Temp;Humidity;BMP_temperature;BMP_pressure;BME280_temperature;BME280_humidity;BME280_pressure;Samples;Min_cycle;Max_cycle;Signal;HPM_P1;HPM_P2
2022/05/30 00:00:20;;;;;;;3.97;2.88;;;6.70;99.90;;;;;;4963962;28;20037;-64
2022/05/30 00:02:49;;;;;;;5.28;2.78;;;6.80;99.90;;;;;;4966080;28;20601;-64
2022/05/30 00:05:18;;;;;;;3.35;3.05;;;6.80;99.90;;;;;;4970147;28;20056;-63
2022/05/30 00:07:45;;;;;;;4.15;3.03;;;6.70;99.90;;;;;;4969167;28;20550;-63
2022/05/30 00:10:13;;;;;;;4.15;2.40;;;6.80;99.90;;;;;;4968206;28;20196;-64
2022/05/30 00:12:40;;;;;;;3.85;3.35;;;6.80;99.90;;;;;;4977753;28;20044;-64
2022/05/30 00:15:11;;;;;;;5.45;3.17;;;6.80;99.90;;;;;;4989381;28;20036;-63
2022/05/30 00:17:38;;;;;;;7.63;3.03;;;6.80;99.90;;;;;;4984199;28;20905;-63
2022/05/30 00:20:06;;;;;;;4.88;3.30;;;6.70;99.90;;;;;;4987170;28;20587;-64
2022/05/30 00:22:33;;;;;;;3.78;3.03;;;6.70;99.90;;;;;;4984631;28;20201;-64
2022/05/30 00:25:00;;;;;;;3.65;2.95;;;6.70;99.90;;;;;;4989056;28;20402;-63
2022/05/30 00:27:27;;;;;;;4.63;2.95;;;6.70;99.90;;;;;;4988798;28;20033;-63
2022/05/30 00:29:54;;;;;;;;;;;6.70;99.90;;;;;;4985953;28;20585;-63
2022/05/30 00:32:21;;;;;;;9.82;4.03;;;6.70;99.90;;;;;;4989209;28;19921;-63
2022/05/30 00:34:48;;;;;;;13.02;3.20;;;6.70;99.90;;;;;;4990620;28;20053;-63
2022/05/30 00:37:15;;;;;;;5.60;3.63;;;6.70;99.90;;;;;;4987827;28;20525;-63
2022/05/30 00:39:42;;;;;;;7.00;3.80;;;6.70;99.90;;;;;;4984708;28;20055;-64
2022/05/30 00:42:13;;;;;;;;;;;6.60;99.90;;;;;;4985435;28;20301;-63
2022/05/30 00:44:42;;;;;;;5.40;3.38;;;6.60;99.90;;;;;;4986889;28;20085;-63
2022/05/30 00:47:10;;;;;;;4.15;2.95;;;6.60;99.90;;;;;;4982845;28;20563;-63
2022/05/30 00:49:38;;;;;;;3.80;3.40;;;6.60;99.90;;;;;;4966716;28;20052;-65
2022/05/30 00:52:09;;;;;;;4.80;3.22;;;6.60;99.90;;;;;;4983821;28;20169;-63
2022/05/30 00:54:52;;;;;;;10.23;3.35;;;6.60;99.90;;;;;;4981898;28;20913;-64
2022/05/30 00:57:22;;;;;;;3.13;2.83;;;6.60;99.90;;;;;;4969127;28;20109;-63
2022/05/30 01:00:02;;;;;;;5.07;3.38;;;6.50;99.90;;;;;;4969060;28;20581;-63
2022/05/30 01:02:36;;;;;;;6.35;3.55;;;6.50;99.90;;;;;;4980388;28;20060;-63
2022/05/30 01:07:49;;;;;;;4.78;3.42;;;6.40;99.90;;;;;;4967427;28;20262;-64
2022/05/30 01:10:20;;;;;;;4.00;3.60;;;6.30;99.90;;;;;;4969170;28;20203;-63
2022/05/30 01:12:53;;;;;;;7.18;4.32;;;6.30;99.90;;;;;;4977371;28;20656;-62
2022/05/30 01:15:27;;;;;;;4.05;3.20;;;6.20;99.90;;;;;;4968387;28;20078;-62
2022/05/30 01:18:20;;;;;;;4.28;3.65;;;6.20;99.90;;;;;;4982705;28;20581;-62
2022/05/30 01:21:22;;;;;;;4.80;3.63;;;6.10;99.90;;;;;;4984136;28;20877;-62
2022/05/30 01:24:05;;;;;;;6.15;3.60;;;6.10;99.90;;;;;;4984012;28;20067;-63
2022/05/30 01:27:15;;;;;;;3.95;3.55;;;6.10;99.90;;;;;;4966496;28;20064;-62
2022/05/30 01:29:52;;;;;;;6.18;3.85;;;6.10;99.90;;;;;;4977810;28;20051;-63
2022/05/30 01:32:23;;;;;;;4.78;3.63;;;6.00;99.90;;;;;;4987577;28;20064;-63
2022/05/30 01:34:50;;;;;;;8.13;4.35;;;6.00;99.90;;;;;;4987373;28;20133;-63
2022/05/30 01:37:24;;;;;;;4.57;3.83;;;5.90;99.90;;;;;;4983497;28;20067;-63
2022/05/30 01:39:52;;;;;;;4.57;3.30;;;5.90;99.90;;;;;;4983153;28;20037;-63
2022/05/30 01:42:19;;;;;;;4.50;3.90;;;5.80;99.90;;;;;;4985646;28;20148;-63
2022/05/30 01:44:46;;;;;;;5.22;4.43;;;5.80;99.90;;;;;;4987939;28;20029;-63
2022/05/30 01:47:13;;;;;;;9.10;3.97;;;5.80;99.90;;;;;;4982982;28;20059;-64
2022/05/30 01:49:43;;;;;;;7.70;4.43;;;5.70;99.90;;;;;;4976779;28;20186;-63
2022/05/30 01:52:10;;;;;;;13.50;4.72;;;5.70;99.90;;;;;;4967337;28;20099;-63
2022/05/30 01:54:38;;;;;;;10.35;4.35;;;5.70;99.90;;;;;;4964588;28;20045;-63
2022/05/30 01:57:25;;;;;;;6.72;4.05;;;5.70;99.90;;;;;;4964488;28;20305;-63
2022/05/30 02:00:22;;;;;;;9.80;4.47;;;5.70;99.90;;;;;;4962486;28;20863;-63
2022/05/30 02:02:50;;;;;;;12.50;5.15;;;5.60;99.90;;;;;;4947319;28;20293;-64
2022/05/30 02:05:19;;;;;;;5.57;4.28;;;5.60;99.90;;;;;;4980462;28;20041;-63
2022/05/30 02:07:46;;;;;;;9.52;4.30;;;5.60;99.90;;;;;;4964127;28;20553;-63
2022/05/30 02:10:18;;;;;;;4.97;4.07;;;5.60;99.90;;;;;;4965484;28;20191;-63
2022/05/30 02:12:47;;;;;;;5.60;4.35;;;5.60;99.90;;;;;;4989821;28;20052;-63
2022/05/30 02:17:00;;;;;;;7.68;4.03;;;5.50;99.90;;;;;;4988087;28;20045;-63
2022/05/30 02:18:21;;;;;;;5.13;3.40;;;5.50;99.90;;;;;;4982190;28;20059;-63
2022/05/30 02:20:48;;;;;;;4.07;3.65;;;5.50;99.90;;;;;;4986408;28;20045;-62
2022/05/30 02:23:16;;;;;;;4.75;4.05;;;5.60;99.90;;;;;;4992317;28;20033;-62
2022/05/30 02:25:44;;;;;;;7.03;3.88;;;5.60;99.90;;;;;;4964719;28;20052;-63
2022/05/30 02:28:14;;;;;;;5.13;4.13;;;5.50;99.90;;;;;;4983180;28;20055;-63
2022/05/30 02:30:41;;;;;;;4.45;3.85;;;5.50;99.90;;;;;;4983116;28;20260;-63
2022/05/30 02:38:41;;;;;;;5.03;3.42;;;5.50;99.90;;;;;;4982610;28;20403;-63
2022/05/30 02:41:27;;;;;;;3.60;3.30;;;5.50;99.90;;;;;;4985122;28;20052;-62
2022/05/30 02:44:04;;;;;;;5.45;3.85;;;5.50;99.90;;;;;;4972234;28;20178;-63
2022/05/30 02:46:31;;;;;;;4.68;3.28;;;5.50;99.90;;;;;;4984693;28;20388;-62
2022/05/30 02:48:59;;;;;;;6.38;3.53;;;5.50;99.90;;;;;;4980964;28;20041;-62
2022/05/30 02:51:27;;;;;;;4.63;3.53;;;5.40;99.90;;;;;;4965683;28;20891;-63
2022/05/30 02:53:55;;;;;;;6.30;4.20;;;5.40;99.90;;;;;;4964557;28;20446;-63
2022/05/30 02:56:34;;;;;;;13.27;3.67;;;5.40;99.90;;;;;;4965343;28;20660;-63
2022/05/30 02:59:03;;;;;;;8.93;3.75;;;5.30;99.90;;;;;;4978778;28;20130;-63
2022/05/30 03:01:34;;;;;;;3.25;2.95;;;5.30;99.90;;;;;;4992878;28;20209;-64
2022/05/30 03:04:04;;;;;;;4.53;3.72;;;5.30;99.90;;;;;;4984455;28;20449;-63
2022/05/30 03:06:32;;;;;;;5.07;3.50;;;5.30;99.90;;;;;;4983796;28;20064;-62
2022/05/30 03:09:00;;;;;;;3.72;3.17;;;5.20;99.90;;;;;;4982127;28;20103;-62
2022/05/30 03:11:53;;;;;;;4.88;3.85;;;5.20;99.90;;;;;;4982996;28;20541;-62
2022/05/30 03:14:19;;;;;;;;;;;5.20;99.90;;;;;;4983837;28;20214;-62
2022/05/30 03:16:47;;;;;;;5.47;3.75;;;5.10;99.90;;;;;;4984347;28;20066;-63
2022/05/30 03:19:15;;;;;;;4.22;3.70;;;5.10;99.90;;;;;;4982475;28;20379;-63
2022/05/30 03:21:42;;;;;;;4.57;4.13;;;5.10;99.90;;;;;;4986241;28;20056;-63
2022/05/30 03:24:09;;;;;;;6.00;4.30;;;5.10;99.90;;;;;;4982643;28;20090;-63
2022/05/30 03:26:37;;;;;;;5.18;4.20;;;5.10;99.90;;;;;;4986589;28;20040;-63
2022/05/30 03:29:05;;;;;;;4.72;4.32;;;5.10;99.90;;;;;;4966516;28;20052;-64
2022/05/30 03:31:35;;;;;;;5.88;4.57;;;5.10;99.90;;;;;;4982517;28;20155;-64
2022/05/30 03:34:02;;;;;;;4.93;4.43;;;5.10;99.90;;;;;;4987003;28;20340;-64
2022/05/30 03:36:32;;;;;;;7.75;5.35;;;5.10;99.90;;;;;;4983222;28;20041;-64
2022/05/30 03:38:59;;;;;;;5.13;3.72;;;5.10;99.90;;;;;;4988347;28;20367;-63
2022/05/30 03:41:45;;;;;;;9.05;4.40;;;5.10;99.90;;;;;;4987924;28;20332;-64
2022/05/30 03:44:19;;;;;;;4.05;3.65;;;5.10;99.90;;;;;;4987277;28;20075;-64
2022/05/30 03:46:46;;;;;;;6.70;4.18;;;5.20;99.90;;;;;;4986316;28;20041;-64
2022/05/30 03:49:13;;;;;;;6.63;3.53;;;5.20;99.90;;;;;;4985808;28;20141;-64
2022/05/30 03:51:40;;;;;;;12.43;4.35;;;5.20;99.90;;;;;;4964791;28;20172;-65
2022/05/30 03:54:08;;;;;;;3.72;3.35;;;5.30;99.90;;;;;;4983168;28;20053;-64
2022/05/30 03:56:36;;;;;;;5.25;3.45;;;5.30;99.90;;;;;;4969600;28;20141;-63
2022/05/30 03:59:03;;;;;;;5.85;3.47;;;5.30;99.90;;;;;;4982561;28;20053;-63
2022/05/30 04:01:30;;;;;;;6.43;4.43;;;5.40;99.90;;;;;;4983223;28;20049;-63
2022/05/30 04:03:57;;;;;;;9.00;3.83;;;5.40;99.90;;;;;;4983197;28;20179;-63
2022/05/30 04:06:25;;;;;;;4.60;3.40;;;5.50;99.90;;;;;;4970868;28;20123;-63
2022/05/30 04:08:53;;;;;;;4.65;3.20;;;5.50;99.90;;;;;;4982769;28;20214;-63
2022/05/30 04:11:39;;;;;;;5.65;3.75;;;5.60;99.90;;;;;;4968659;28;20404;-63
2022/05/30 04:14:25;;;;;;;4.03;2.97;;;5.70;99.90;;;;;;4988306;28;20072;-63
2022/05/30 04:17:01;;;;;;;5.43;3.97;;;5.80;99.90;;;;;;4970825;28;20048;-63
2022/05/30 04:19:29;;;;;;;3.22;2.92;;;5.80;99.90;;;;;;4986508;28;20048;-64
2022/05/30 04:21:56;;;;;;;4.10;3.70;;;5.90;99.90;;;;;;4985105;28;20230;-64
2022/05/30 04:24:31;;;;;;;5.45;3.40;;;6.00;99.90;;;;;;4985879;28;20723;-63
2022/05/30 04:27:03;;;;;;;7.07;3.70;;;6.00;99.90;;;;;;4985160;28;20064;-63
2022/05/30 04:29:30;;;;;;;5.57;4.00;;;6.10;99.90;;;;;;4987991;28;20288;-63
2022/05/30 04:32:12;;;;;;;5.25;3.85;;;6.10;99.90;;;;;;4985427;28;20037;-56
2022/05/30 04:34:39;;;;;;;4.80;3.72;;;6.20;99.90;;;;;;4985535;28;20080;-55
2022/05/30 04:37:06;;;;;;;3.85;3.35;;;6.20;99.90;;;;;;4984544;28;20219;-55
2022/05/30 04:39:35;;;;;;;9.23;4.03;;;6.30;99.90;;;;;;4985556;28;20044;-56
2022/05/30 04:42:28;;;;;;;3.35;3.03;;;6.40;99.90;;;;;;4962092;28;20474;-55
2022/05/30 04:45:24;;;;;;;3.60;3.30;;;6.40;99.90;;;;;;4985188;28;20387;-55
2022/05/30 04:48:20;;;;;;;4.90;3.72;;;6.50;99.90;;;;;;4981960;28;20125;-55
2022/05/30 04:50:47;;;;;;;3.88;3.33;;;6.60;99.90;;;;;;4965234;28;20275;-54
2022/05/30 04:53:14;;;;;;;;;;;6.60;99.90;;;;;;4967310;28;20069;-58
2022/05/30 04:56:00;;;;;;;4.35;3.72;;;6.70;99.90;;;;;;4978875;28;20740;-57
2022/05/30 04:58:44;;;;;;;5.50;3.65;;;6.70;99.90;;;;;;4981380;28;20045;-58
2022/05/30 05:01:17;;;;;;;5.28;3.35;;;6.80;99.90;;;;;;4981218;28;21039;-57
2022/05/30 05:03:45;;;;;;;7.57;3.95;;;6.90;99.90;;;;;;4982005;28;20037;-56
2022/05/30 05:06:16;;;;;;;6.75;4.03;;;7.00;99.90;;;;;;4968492;28;20041;-57
2022/05/30 05:08:51;;;;;;;3.38;3.00;;;7.00;99.90;;;;;;4980377;28;20049;-58
2022/05/30 05:11:36;;;;;;;3.67;3.20;;;7.00;99.90;;;;;;4980072;28;20065;-58
2022/05/30 05:14:22;;;;;;;5.00;4.10;;;7.00;99.90;;;;;;4983869;28;20374;-58
2022/05/30 05:17:08;;;;;;;4.60;3.53;;;7.10;99.90;;;;;;4985811;28;20172;-56
2022/05/30 05:19:41;;;;;;;3.83;3.42;;;7.10;99.90;;;;;;4987770;28;20036;-59
2022/05/30 05:22:14;;;;;;;4.22;3.15;;;7.10;99.90;;;;;;4987641;28;20317;-59
2022/05/30 05:24:42;;;;;;;3.67;2.97;;;7.20;99.90;;;;;;4984500;28;20592;-61
2022/05/30 05:27:15;;;;;;;6.45;3.42;;;7.20;99.90;;;;;;4985650;28;20700;-58
2022/05/30 05:29:43;;;;;;;4.93;3.70;;;7.30;99.90;;;;;;4984315;28;20241;-59
2022/05/30 05:32:11;;;;;;;5.13;3.40;;;7.30;99.90;;;;;;4986510;28;20189;-59
2022/05/30 05:34:38;;;;;;;6.20;3.50;;;7.40;99.90;;;;;;4984879;28;20207;-58
2022/05/30 05:37:06;;;;;;;5.88;4.05;;;7.50;99.90;;;;;;4985548;28;20260;-60
2022/05/30 05:40:03;;;;;;;7.18;5.13;;;7.60;99.90;;;;;;4950479;28;20214;-59
2022/05/30 05:42:30;;;;;;;13.63;6.60;;;7.70;99.90;;;;;;4983763;28;20167;-59
2022/05/30 05:44:57;;;;;;;8.23;4.35;;;7.80;99.90;;;;;;4982810;28;20045;-58
2022/05/30 05:47:24;;;;;;;6.95;4.63;;;7.80;99.90;;;;;;4983665;28;20393;-59
2022/05/30 05:49:57;;;;;;;4.78;4.00;;;7.90;99.90;;;;;;4987481;28;20068;-58
2022/05/30 05:52:28;;;;;;;7.28;5.60;;;8.00;99.90;;;;;;4976836;28;20025;-60
2022/05/30 05:54:57;;;;;;;8.20;5.65;;;8.10;99.90;;;;;;4977900;28;20783;-59
2022/05/30 05:57:28;;;;;;;8.80;5.90;;;8.10;99.90;;;;;;4983041;28;20053;-59
2022/05/30 05:59:55;;;;;;;7.47;4.93;;;8.20;99.90;;;;;;4967647;28;20601;-57
2022/05/30 06:02:23;;;;;;;8.40;5.25;;;8.30;99.90;;;;;;4982952;28;20233;-58
2022/05/30 06:04:52;;;;;;;7.80;5.07;;;8.40;99.90;;;;;;4984241;28;20108;-60
2022/05/30 06:07:51;;;;;;;13.30;5.47;;;8.50;99.90;;;;;;4963152;28;20095;-59
2022/05/30 06:11:05;;;;;;;6.78;5.55;;;8.60;99.90;;;;;;4981074;28;20088;-59
2022/05/30 06:13:40;;;;;;;4.68;4.13;;;8.70;99.90;;;;;;4983155;28;20903;-59
2022/05/30 06:16:10;;;;;;;6.95;4.78;;;8.80;99.90;;;;;;4985437;28;20155;-59
2022/05/30 06:18:46;;;;;;;5.63;4.45;;;9.00;99.90;;;;;;4982831;28;20052;-57
2022/05/30 06:21:13;;;;;;;6.20;4.47;;;9.10;99.90;;;;;;4983055;28;20369;-60
2022/05/30 06:23:46;;;;;;;5.28;4.20;;;9.20;99.90;;;;;;4985970;28;20043;-59
2022/05/30 06:26:14;;;;;;;16.17;5.15;;;9.30;99.90;;;;;;4983441;28;20383;-59
2022/05/30 06:29:04;;;;;;;7.10;4.82;;;9.40;99.90;;;;;;4982607;28;20048;-59
2022/05/30 06:31:33;;;;;;;5.53;4.30;;;9.60;99.90;;;;;;4983547;28;20269;-60
2022/05/30 06:34:02;;;;;;;7.40;4.55;;;9.80;99.90;;;;;;4984650;28;20569;-57
2022/05/30 06:36:42;;;;;;;4.28;3.88;;;9.90;99.90;;;;;;4986653;28;20045;-58
2022/05/30 06:39:10;;;;;;;4.85;3.42;;;10.00;99.90;;;;;;4968724;28;20041;-58
2022/05/30 06:41:58;;;;;;;8.05;3.92;;;10.10;99.90;;;;;;4983105;28;20198;-57
2022/05/30 06:44:26;;;;;;;5.10;4.00;;;10.10;99.90;;;;;;4983355;28;20396;-57
2022/05/30 06:47:12;;;;;;;5.25;3.70;;;10.20;99.90;;;;;;4984036;28;20291;-57
2022/05/30 06:49:57;;;;;;;6.13;3.08;;;10.20;99.90;;;;;;4982286;28;20068;-58
2022/05/30 06:52:26;;;;;;;5.57;2.88;;;10.30;99.90;;;;;;4965767;28;20075;-57
2022/05/30 06:54:53;;;;;;;3.03;2.63;;;10.40;99.90;;;;;;4964832;28;20140;-58
2022/05/30 07:00:07;;;;;;;5.10;2.85;;;10.40;99.90;;;;;;4986810;28;20394;-57
2022/05/30 07:02:45;;;;;;;4.13;3.35;;;10.50;99.90;;;;;;4982501;28;20040;-57
2022/05/30 07:05:31;;;;;;;4.38;3.53;;;10.60;99.90;;;;;;4985197;28;20744;-58
2022/05/30 07:08:17;;;;;;;3.78;2.88;;;10.60;99.90;;;;;;4983838;28;20107;-57
2022/05/30 07:11:03;;;;;;;2.88;2.55;;;10.70;99.90;;;;;;4984998;28;20568;-57
2022/05/30 07:13:30;;;;;;;3.97;3.00;;;10.70;99.90;;;;;;4986012;28;20549;-57
2022/05/30 07:15:59;;;;;;;4.25;2.53;;;10.70;99.90;;;;;;4971148;28;20045;-58
2022/05/30 07:18:31;;;;;;;3.83;2.80;;;10.70;99.90;;;;;;4986197;28;20344;-59
2022/05/30 07:21:00;;;;;;;3.80;3.10;;;10.80;99.90;;;;;;4986571;28;20060;-58
2022/05/30 07:23:28;;;;;;;10.73;3.30;;;10.90;99.90;;;;;;4991224;28;20229;-60
2022/05/30 07:26:19;;;;;;;4.35;2.42;;;11.00;99.90;;;;;;4985396;28;20585;-58
2022/05/30 07:29:08;;;;;;;5.07;2.90;;;11.10;99.90;;;;;;4988966;28;20854;-59
2022/05/30 07:32:02;;;;;;;2.37;2.17;;;11.20;99.90;;;;;;4988686;28;20052;-60
2022/05/30 07:34:47;;;;;;;3.10;2.45;;;11.30;99.90;;;;;;4986874;28;20599;-58
2022/05/30 07:37:30;;;;;;;3.88;2.15;;;11.50;99.90;;;;;;4986297;28;20084;-57
2022/05/30 07:40:21;;;;;;;2.90;2.63;;;11.60;99.90;;;;;;4984399;28;20056;-59
2022/05/30 07:43:20;;;;;;;3.63;2.72;;;11.80;99.90;;;;;;4964632;28;20899;-61
2022/05/30 07:46:01;;;;;;;;;;;12.10;99.90;;;;;;4973744;28;20041;-58
2022/05/30 07:48:47;;;;;;;3.33;2.85;;;12.20;99.90;;;;;;4985323;28;20263;-60
2022/05/30 07:51:33;;;;;;;6.80;2.33;;;12.30;99.90;;;;;;4984968;28;20803;-59
2022/05/30 07:54:18;;;;;;;3.55;2.67;;;12.40;99.90;;;;;;4979761;28;20161;-59
2022/05/30 07:57:07;;;;;;;4.47;2.78;;;12.50;99.90;;;;;;4966526;28;20363;-58
2022/05/30 07:59:36;;;;;;;7.63;3.50;;;12.50;99.90;;;;;;4986348;28;20439;-58
2022/05/30 08:02:05;;;;;;;9.50;3.10;;;12.60;99.90;;;;;;4983413;28;20049;-58
2022/05/30 08:04:35;;;;;;;5.18;2.60;;;12.80;99.90;;;;;;4949893;28;20367;-58
2022/05/30 08:07:20;;;;;;;3.17;2.85;;;13.00;99.90;;;;;;4967065;28;20894;-57
2022/05/30 08:10:20;;;;;;;6.15;3.33;;;13.20;99.90;;;;;;4966838;28;20214;-55
2022/05/30 08:12:47;;;;;;;5.70;2.65;;;13.60;99.90;;;;;;4977862;28;20436;-57
2022/05/30 08:15:33;;;;;;;4.60;2.80;;;13.90;99.90;;;;;;4987534;28;20041;-55
2022/05/30 08:18:22;;;;;;;6.13;2.95;;;14.20;99.90;;;;;;4985323;28;20118;-57
2022/05/30 08:20:53;;;;;;;6.88;3.30;;;14.30;99.90;;;;;;4988335;28;20205;-57
2022/05/30 08:23:23;;;;;;;7.72;2.70;;;14.50;99.90;;;;;;4984035;28;20041;-57
2022/05/30 08:25:53;;;;;;;3.15;2.60;;;14.80;99.90;;;;;;4985201;28;20503;-60
2022/05/30 08:28:25;;;;;;;3.92;2.58;;;15.10;99.90;;;;;;4969111;28;20243;-60
2022/05/30 08:30:52;;;;;;;3.58;2.30;;;15.30;99.90;;;;;;4985265;28;20469;-60
2022/05/30 08:33:38;;;;;;;5.38;2.13;;;15.70;99.90;;;;;;4991708;28;20352;-59
2022/05/30 08:36:12;;;;;;;2.33;1.90;;;16.00;99.90;;;;;;4989979;28;20566;-59
2022/05/30 08:38:42;;;;;;;3.95;2.10;;;16.40;99.90;;;;;;4990485;28;20146;-59
2022/05/30 08:44:30;;;;;;;4.20;1.75;;;16.90;99.00;;;;;;4988678;28;20574;-58
2022/05/30 08:47:49;;;;;;;6.90;2.38;;;17.20;99.20;;;;;;4987740;28;20044;-60
2022/05/30 08:50:23;;;;;;;2.63;1.65;;;17.40;94.60;;;;;;4984138;28;20329;-56
2022/05/30 08:53:17;;;;;;;2.97;1.73;;;17.60;92.30;;;;;;4983358;28;20570;-57
2022/05/30 08:56:09;;;;;;;2.42;1.35;;;17.70;91.00;;;;;;4964427;28;20060;-57
2022/05/30 08:59:04;;;;;;;;;;;17.90;83.50;;;;;;4967183;28;20340;-56
2022/05/30 09:01:35;;;;;;;4.97;1.67;;;18.10;80.30;;;;;;4974997;28;20166;-56
2022/05/30 09:04:43;;;;;;;1.50;1.10;;;18.20;74.90;;;;;;4986774;28;20052;-55
2022/05/30 09:07:16;;;;;;;4.35;1.50;;;18.20;65.90;;;;;;4983955;28;20099;-57
2022/05/30 09:10:02;;;;;;;2.95;1.27;;;18.30;63.60;;;;;;4984932;28;20092;-58
2022/05/30 09:12:38;;;;;;;4.85;2.15;;;18.40;64.20;;;;;;4985622;28;20029;-56
2022/05/30 09:15:34;;;;;;;2.77;1.63;;;18.40;63.30;;;;;;4959078;28;20459;-58
2022/05/30 09:18:10;;;;;;;4.65;1.85;;;18.50;63.10;;;;;;4984062;28;20394;-56
2022/05/30 09:20:41;;;;;;;10.35;2.63;;;18.50;64.80;;;;;;5000918;28;20238;-57
2022/05/30 09:23:12;;;;;;;3.05;1.88;;;18.60;66.00;;;;;;4988582;28;20044;-58
2022/05/30 09:25:57;;;;;;;3.15;1.63;;;18.70;66.40;;;;;;4983880;28;20072;-57
2022/05/30 09:29:03;;;;;;;2.00;1.80;;;18.70;63.00;;;;;;4976109;28;20045;-57
2022/05/30 09:31:39;;;;;;;4.35;1.58;;;18.70;64.40;;;;;;4985152;28;20159;-57
2022/05/30 09:34:40;;;;;;;3.25;1.75;;;18.60;61.10;;;;;;4967353;28;20796;-57
2022/05/30 09:37:33;;;;;;;4.50;1.70;;;18.60;61.00;;;;;;4985563;28;20415;-54
2022/05/30 09:40:22;;;;;;;2.67;1.48;;;18.60;60.00;;;;;;4970560;28;20052;-56
2022/05/30 09:43:50;;;;;;;3.97;1.50;;;18.70;59.30;;;;;;4972556;28;20893;-60
2022/05/30 09:46:42;;;;;;;2.25;1.58;;;18.80;57.90;;;;;;4967942;28;20045;-58
2022/05/30 09:49:42;;;;;;;1.35;1.23;;;19.00;60.30;;;;;;4985757;28;20048;-60
2022/05/30 09:52:40;;;;;;;3.40;1.60;;;19.20;58.60;;;;;;4984460;28;20310;-57
2022/05/30 09:55:24;;;;;;;2.03;1.30;;;19.40;62.10;;;;;;4986549;28;20045;-57
2022/05/30 09:57:54;;;;;;;4.97;2.03;;;19.40;58.60;;;;;;4962692;28;20077;-57
2022/05/30 10:00:41;;;;;;;2.03;1.30;;;19.50;57.40;;;;;;4980120;28;20819;-58
2022/05/30 10:03:32;;;;;;;3.13;1.30;;;19.40;56.70;;;;;;4970403;28;20341;-56
2022/05/30 10:06:19;;;;;;;;;;;19.50;57.00;;;;;;4969078;28;20041;-56
2022/05/30 10:08:51;;;;;;;3.78;1.70;;;19.40;60.20;;;;;;4987953;28;19925;-57
2022/05/30 10:11:32;;;;;;;3.88;1.52;;;19.50;57.30;;;;;;4983116;28;20045;-57
2022/05/30 10:14:20;;;;;;;2.67;1.15;;;19.50;54.90;;;;;;4988275;28;20490;-57
2022/05/30 10:17:26;;;;;;;5.38;1.48;;;19.60;53.70;;;;;;4975458;28;20044;-58
2022/05/30 10:19:57;;;;;;;1.98;0.90;;;19.80;55.90;;;;;;4985262;28;20041;-57
2022/05/30 10:29:51;;;;;;;3.15;1.65;;;20.00;51.50;;;;;;4988380;28;20363;-58
2022/05/30 10:33:02;;;;;;;2.22;1.23;;;19.90;52.50;;;;;;4985510;28;20191;-58
2022/05/30 10:35:35;;;;;;;5.60;1.30;;;19.80;52.20;;;;;;4986431;28;20052;-58
2022/05/30 10:38:16;;;;;;;2.40;1.30;;;19.80;48.80;;;;;;4982631;28;20044;-58
2022/05/30 10:40:56;;;;;;;10.68;2.15;;;19.90;52.20;;;;;;4986134;28;20490;-58
2022/05/30 10:43:29;;;;;;;3.50;1.67;;;20.00;54.40;;;;;;4984317;28;20134;-58
2022/05/30 10:46:00;;;;;;;3.03;1.30;;;20.10;52.50;;;;;;4983004;28;20825;-57
2022/05/30 10:48:29;;;;;;;4.20;1.35;;;20.10;53.60;;;;;;4981419;28;20048;-58
2022/05/30 10:51:13;;;;;;;3.50;1.77;;;20.20;53.90;;;;;;4985620;28;20037;-58
2022/05/30 10:54:04;;;;;;;1.88;1.23;;;20.30;53.30;;;;;;4982119;28;20357;-58
2022/05/30 10:56:54;;;;;;;2.80;1.83;;;20.50;53.00;;;;;;4979116;28;20049;-57
2022/05/30 10:59:39;;;;;;;3.35;1.35;;;20.60;50.90;;;;;;4981109;28;20049;-58
2022/05/30 11:02:30;;;;;;;2.80;1.45;;;20.50;47.00;;;;;;4962898;28;20068;-58
2022/05/30 11:05:11;;;;;;;3.72;1.70;;;20.60;49.50;;;;;;4980098;28;20369;-58
2022/05/30 11:08:20;;;;;;;5.78;1.35;;;20.60;50.30;;;;;;4962693;28;20045;-58
2022/05/30 11:11:05;;;;;;;1.65;1.17;;;20.70;50.60;;;;;;4964967;28;20139;-57
2022/05/30 11:13:50;;;;;;;2.05;1.23;;;20.80;47.40;;;;;;4981713;28;20041;-58
2022/05/30 11:16:52;;;;;;;1.27;1.08;;;20.70;45.50;;;;;;4982976;28;20332;-58
2022/05/30 11:19:51;;;;;;;3.65;1.15;;;20.60;48.90;;;;;;4988320;28;20417;-57
2022/05/30 11:22:30;;;;;;;2.28;1.10;;;20.70;50.50;;;;;;4984160;28;20049;-57
2022/05/30 11:25:03;;;;;;;4.22;1.55;;;20.80;49.70;;;;;;4989120;28;20060;-57
2022/05/30 11:27:37;;;;;;;1.38;1.13;;;20.80;49.90;;;;;;4984453;28;20134;-58
2022/05/30 11:30:23;;;;;;;3.97;1.60;;;20.90;49.20;;;;;;4987048;28;20119;-58
2022/05/30 11:33:06;;;;;;;1.73;1.10;;;20.90;49.60;;;;;;4985235;28;20274;-57
2022/05/30 11:35:35;;;;;;;1.92;1.10;;;20.90;50.80;;;;;;4986459;28;20461;-59
2022/05/30 11:38:44;;;;;;;3.85;1.00;;;20.90;48.70;;;;;;4986623;28;20048;-59
2022/05/30 11:41:36;;;;;;;5.18;1.25;;;20.80;47.20;;;;;;4989188;28;20033;-58
2022/05/30 11:44:28;;;;;;;2.53;1.10;;;20.90;46.20;;;;;;4988452;28;20245;-58
2022/05/30 11:47:01;;;;;;;2.15;1.00;;;21.00;47.90;;;;;;4989845;28;20921;-58
2022/05/30 11:50:04;;;;;;;2.55;1.25;;;21.10;48.10;;;;;;4984818;28;20567;-59
2022/05/30 11:53:05;;;;;;;5.35;1.88;;;21.20;47.90;;;;;;4966315;28;20181;-59
2022/05/30 11:55:59;;;;;;;3.28;1.35;;;21.20;48.50;;;;;;4981622;28;20064;-59
2022/05/30 11:58:51;;;;;;;1.88;1.40;;;21.20;47.10;;;;;;4980459;28;20041;-57
2022/05/30 12:01:23;;;;;;;3.13;1.30;;;21.20;49.70;;;;;;4979068;28;20251;-56
2022/05/30 12:03:54;;;;;;;4.20;1.50;;;21.10;47.90;;;;;;4974397;28;20049;-56
2022/05/30 12:06:28;;;;;;;1.23;0.88;;;21.30;45.90;;;;;;4970078;28;20360;-56
2022/05/30 12:09:02;;;;;;;1.70;1.05;;;21.30;45.30;;;;;;4967702;28;20044;-57
2022/05/30 12:11:54;;;;;;;3.63;1.10;;;21.50;47.00;;;;;;4966274;28;20602;-56
2022/05/30 12:15:06;;;;;;;1.88;1.00;;;21.60;47.10;;;;;;4982920;28;20246;-57
2022/05/30 12:24:40;;;;;;;1.83;1.05;;;21.80;45.70;;;;;;4984791;28;20065;-57
2022/05/30 12:27:35;;;;;;;0.85;0.70;;;21.80;46.60;;;;;;4988479;28;20037;-57
2022/05/30 12:30:23;;;;;;;4.40;1.60;;;21.80;46.00;;;;;;4987748;28;20809;-55
2022/05/30 12:32:50;;;;;;;5.55;1.20;;;21.90;47.70;;;;;;4989943;28;20566;-55
2022/05/30 12:35:26;;;;;;;3.25;1.20;;;21.90;44.20;;;;;;4987601;28;20620;-60
2022/05/30 12:37:59;;;;;;;3.78;1.33;;;21.90;45.40;;;;;;4989045;28;20037;-61
2022/05/30 12:40:26;;;;;;;4.65;1.58;;;21.90;45.70;;;;;;4986378;28;20531;-60
2022/05/30 12:43:23;;;;;;;5.20;1.45;;;21.90;46.80;;;;;;4987315;28;20197;-60
2022/05/30 12:45:56;;;;;;;2.60;1.13;;;22.00;45.40;;;;;;4988317;28;20119;-58
2022/05/30 12:48:57;;;;;;;3.40;1.35;;;22.10;46.70;;;;;;4984926;28;20333;-61
2022/05/30 12:51:37;;;;;;;1.80;1.13;;;22.10;44.00;;;;;;4985825;28;20744;-60
2022/05/30 12:54:04;;;;;;;5.03;1.50;;;22.10;47.60;;;;;;4984299;28;20152;-61
2022/05/30 12:56:37;;;;;;;2.03;1.40;;;22.10;45.30;;;;;;4988760;28;20605;-59
2022/05/30 12:59:18;;;;;;;1.65;0.93;;;22.20;42.50;;;;;;4981317;28;20148;-62
2022/05/30 13:01:45;;;;;;;1.73;1.13;;;22.10;41.70;;;;;;4966451;28;20286;-62
2022/05/30 13:04:15;;;;;;;2.63;1.15;;;21.90;41.30;;;;;;4969306;28;20261;-61
2022/05/30 13:06:57;;;;;;;2.40;1.40;;;21.60;40.70;;;;;;4968344;28;20052;-62
2022/05/30 13:09:33;;;;;;;4.28;1.67;;;21.30;43.60;;;;;;4967173;28;20048;-60
2022/05/30 13:12:19;;;;;;;3.67;1.15;;;21.00;45.60;;;;;;4984670;28;20052;-60
2022/05/30 13:14:49;;;;;;;3.72;1.65;;;20.90;46.50;;;;;;4985019;28;20206;-61
2022/05/30 13:17:19;;;;;;;3.35;1.38;;;21.00;46.50;;;;;;4986657;28;20567;-61
2022/05/30 13:19:47;;;;;;;2.10;1.25;;;21.00;48.00;;;;;;4984585;28;20302;-60
2022/05/30 13:22:18;;;;;;;9.70;1.80;;;21.00;49.20;;;;;;4987698;28;20047;-60
2022/05/30 13:24:45;;;;;;;3.70;1.20;;;21.00;49.20;;;;;;4983915;28;20242;-61
2022/05/30 13:27:12;;;;;;;2.95;1.40;;;21.10;48.10;;;;;;4987214;28;20063;-60
2022/05/30 13:29:40;;;;;;;8.27;1.58;;;21.00;48.40;;;;;;4986815;28;20858;-60
2022/05/30 13:32:14;;;;;;;5.03;1.23;;;20.70;46.20;;;;;;4984613;28;20262;-61
2022/05/30 13:34:48;;;;;;;2.13;1.42;;;20.40;47.40;;;;;;4987595;28;20114;-60
2022/05/30 13:37:36;;;;;;;7.10;1.77;;;20.20;48.70;;;;;;4985847;28;20129;-60
2022/05/30 13:40:08;;;;;;;2.95;1.23;;;19.90;47.50;;;;;;4984441;28;20123;-61
2022/05/30 13:42:57;;;;;;;4.70;1.02;;;19.60;48.40;;;;;;4987902;28;20126;-61
2022/05/30 13:45:46;;;;;;;3.33;1.25;;;19.30;48.80;;;;;;4987687;28;20818;-60
2022/05/30 13:48:18;;;;;;;4.63;1.50;;;19.00;49.30;;;;;;4989868;28;20108;-61
2022/05/30 13:51:03;;;;;;;4.65;1.60;;;18.80;50.30;;;;;;4982988;28;20095;-61
2022/05/30 13:53:42;;;;;;;2.63;0.98;;;18.60;51.50;;;;;;4990421;28;20144;-61
2022/05/30 13:56:18;;;;;;;3.00;1.25;;;18.50;51.90;;;;;;4985670;28;20884;-60
2022/05/30 13:58:54;;;;;;;5.30;1.30;;;18.40;52.30;;;;;;4991347;28;20068;-61
2022/05/30 14:01:27;;;;;;;3.75;1.58;;;18.40;52.80;;;;;;4971813;28;20037;-61
2022/05/30 14:04:00;;;;;;;2.75;1.27;;;18.40;52.90;;;;;;4966974;28;20607;-62
2022/05/30 14:06:33;;;;;;;1.75;1.02;;;18.30;51.60;;;;;;4965631;28;20625;-59
2022/05/30 14:09:03;;;;;;;2.47;1.40;;;18.10;51.00;;;;;;4979585;28;20041;-61
2022/05/30 14:11:49;;;;;;;5.70;1.40;;;18.30;53.50;;;;;;4980706;28;20360;-61
2022/05/30 14:14:37;;;;;;;3.42;1.13;;;18.60;52.50;;;;;;4979657;28;20853;-61